sensor_id;sensor_type;location;lat;lon;timestamp;temperature;humidity
60868;DHT22;46702;48.370;10.794;2023-06-01T00:00:55;14.40;99.90
60868;DHT22;46702;48.370;10.794;2023-06-01T00:03:21;14.40;99.90
60868;DHT22;46702;48.370;10.794;2023-06-01T00:05:47;14.30;99.90
60868;DHT22;46702;48.370;10.794;2023-06-01T00:08:13;14.30;99.90
60868;DHT22;46702;48.370;10.794;2023-06-01T00:10:38;14.20;99.90
60868;DHT22;46702;48.370;10.794;2023-06-01T00:13:04;14.20;99.90
60868;DHT22;46702;48.370;10.794;2023-06-01T00:15:29;14.20;99.90
60868;DHT22;46702;48.370;10.794;2023-06-01T00:17:55;14.10;99.90
60868;DHT22;46702;48.370;10.794;2023-06-01T00:20:21;14.20;99.90
60868;DHT22;46702;48.370;10.794;2023-06-01T00:22:49;14.10;99.90
60868;DHT22;46702;48.370;10.794;2023-06-01T00:25:15;14.10;99.90
60868;DHT22;46702;48.370;10.794;2023-06-01T00:27:41;14.10;99.90
60868;DHT22;46702;48.370;10.794;2023-06-01T00:30:07;14.00;99.90
60868;DHT22;46702;48.370;10.794;2023-06-01T00:32:32;14.00;99.90
60868;DHT22;46702;48.370;10.794;2023-06-01T00:34:58;14.10;99.90
60868;DHT22;46702;48.370;10.794;2023-06-01T00:37:23;14.00;99.90
60868;DHT22;46702;48.370;10.794;2023-06-01T00:39:49;14.10;99.90
60868;DHT22;46702;48.370;10.794;2023-06-01T00:42:15;14.10;99.90
60868;DHT22;46702;48.370;10.794;2023-06-01T00:44:40;14.20;99.90
60868;DHT22;46702;48.370;10.794;2023-06-01T00:47:06;14.10;99.90
60868;DHT22;46702;48.370;10.794;2023-06-01T00:49:33;14.10;99.90
60868;DHT22;46702;48.370;10.794;2023-06-01T00:51:59;14.10;99.90
60868;DHT22;46702;48.370;10.794;2023-06-01T00:54:25;14.10;99.90
60868;DHT22;46702;48.370;10.794;2023-06-01T00:56:51;14.10;99.90
60868;DHT22;46702;48.370;10.794;2023-06-01T00:59:17;13.90;99.90
60868;DHT22;46702;48.370;10.794;2023-06-01T01:01:42;13.90;99.90
60868;DHT22;46702;48.370;10.794;2023-06-01T01:04:09;13.80;99.90
60868;DHT22;46702;48.370;10.794;2023-06-01T01:09:24;13.70;99.90
60868;DHT22;46702;48.370;10.794;2023-06-01T01:12:33;13.70;99.90
60868;DHT22;46702;48.370;10.794;2023-06-01T01:17:41;13.50;99.90
60868;DHT22;46702;48.370;10.794;2023-06-01T01:20:28;13.50;99.90
60868;DHT22;46702;48.370;10.794;2023-06-01T01:23:29;13.40;99.90
60868;DHT22;46702;48.370;10.794;2023-06-01T01:29:03;13.10;99.90
60868;DHT22;46702;48.370;10.794;2023-06-01T01:31:31;13.20;99.90
60868;DHT22;46702;48.370;10.794;2023-06-01T01:33:58;13.30;99.90
60868;DHT22;46702;48.370;10.794;2023-06-01T01:36:24;13.30;99.90
60868;DHT22;46702;48.370;10.794;2023-06-01T01:38:50;13.30;99.90
60868;DHT22;46702;48.370;10.794;2023-06-01T01:41:16;13.30;99.90
60868;DHT22;46702;48.370;10.794;2023-06-01T01:43:42;13.40;99.90
60868;DHT22;46702;48.370;10.794;2023-06-01T01:46:24;13.30;99.90
60868;DHT22;46702;48.370;10.794;2023-06-01T01:49:01;13.10;99.90
60868;DHT22;46702;48.370;10.794;2023-06-01T01:51:49;12.90;99.90
60868;DHT22;46702;48.370;10.794;2023-06-01T01:54:16;12.90;99.90
60868;DHT22;46702;48.370;10.794;2023-06-01T01:56:44;12.90;99.90
60868;DHT22;46702;48.370;10.794;2023-06-01T01:59:10;12.80;99.90
60868;DHT22;46702;48.370;10.794;2023-06-01T02:01:37;12.80;99.90
60868;DHT22;46702;48.370;10.794;2023-06-01T02:04:07;12.80;99.90
60868;DHT22;46702;48.370;10.794;2023-06-01T02:06:33;12.80;99.90
60868;DHT22;46702;48.370;10.794;2023-06-01T02:09:00;12.90;99.90
60868;DHT22;46702;48.370;10.794;2023-06-01T02:11:26;12.90;99.90
60868;DHT22;46702;48.370;10.794;2023-06-01T02:13:51;12.80;99.90
60868;DHT22;46702;48.370;10.794;2023-06-01T02:16:17;12.80;99.90
60868;DHT22;46702;48.370;10.794;2023-06-01T02:18:44;12.90;99.90
60868;DHT22;46702;48.370;10.794;2023-06-01T02:21:12;12.80;99.90
60868;DHT22;46702;48.370;10.794;2023-06-01T02:23:37;12.80;99.90
60868;DHT22;46702;48.370;10.794;2023-06-01T02:26:05;12.80;99.90
60868;DHT22;46702;48.370;10.794;2023-06-01T02:28:31;12.60;99.90
60868;DHT22;46702;48.370;10.794;2023-06-01T02:30:56;12.60;99.90
60868;DHT22;46702;48.370;10.794;2023-06-01T02:33:22;12.60;99.90
60868;DHT22;46702;48.370;10.794;2023-06-01T02:35:50;12.60;99.90
60868;DHT22;46702;48.370;10.794;2023-06-01T02:38:16;12.60;99.90
60868;DHT22;46702;48.370;10.794;2023-06-01T02:40:42;12.60;99.90
60868;DHT22;46702;48.370;10.794;2023-06-01T02:43:08;12.50;99.90
60868;DHT22;46702;48.370;10.794;2023-06-01T02:45:33;12.50;99.90
60868;DHT22;46702;48.370;10.794;2023-06-01T02:47:59;12.40;99.90
60868;DHT22;46702;48.370;10.794;2023-06-01T02:50:25;12.40;99.90
60868;DHT22;46702;48.370;10.794;2023-06-01T02:52:51;12.30;99.90
60868;DHT22;46702;48.370;10.794;2023-06-01T02:55:17;12.30;99.90
60868;DHT22;46702;48.370;10.794;2023-06-01T02:57:43;12.00;99.90
60868;DHT22;46702;48.370;10.794;2023-06-01T03:00:09;11.80;99.90
60868;DHT22;46702;48.370;10.794;2023-06-01T03:02:42;11.60;99.90
60868;DHT22;46702;48.370;10.794;2023-06-01T03:05:08;11.50;99.90
60868;DHT22;46702;48.370;10.794;2023-06-01T03:07:34;11.60;99.90
60868;DHT22;46702;48.370;10.794;2023-06-01T03:09:59;11.60;99.90
60868;DHT22;46702;48.370;10.794;2023-06-01T03:12:25;11.70;99.90
60868;DHT22;46702;48.370;10.794;2023-06-01T03:14:51;11.70;99.90
60868;DHT22;46702;48.370;10.794;2023-06-01T03:17:16;11.70;99.90
60868;DHT22;46702;48.370;10.794;2023-06-01T03:19:42;11.80;99.90
60868;DHT22;46702;48.370;10.794;2023-06-01T03:22:07;11.90;99.90
60868;DHT22;46702;48.370;10.794;2023-06-01T03:24:33;11.90;99.90
60868;DHT22;46702;48.370;10.794;2023-06-01T03:26:59;11.90;99.90
60868;DHT22;46702;48.370;10.794;2023-06-01T03:29:26;11.90;99.90
60868;DHT22;46702;48.370;10.794;2023-06-01T03:31:52;11.90;99.90
60868;DHT22;46702;48.370;10.794;2023-06-01T03:34:17;11.90;99.90
60868;DHT22;46702;48.370;10.794;2023-06-01T03:36:43;12.00;99.90
60868;DHT22;46702;48.370;10.794;2023-06-01T03:39:16;11.90;99.90
60868;DHT22;46702;48.370;10.794;2023-06-01T03:41:42;11.80;99.90
60868;DHT22;46702;48.370;10.794;2023-06-01T03:44:11;11.70;99.90
60868;DHT22;46702;48.370;10.794;2023-06-01T03:46:38;11.70;99.90
60868;DHT22;46702;48.370;10.794;2023-06-01T03:49:04;11.70;99.90
60868;DHT22;46702;48.370;10.794;2023-06-01T03:51:30;11.70;99.90
60868;DHT22;46702;48.370;10.794;2023-06-01T03:53:56;11.70;99.90
60868;DHT22;46702;48.370;10.794;2023-06-01T03:56:21;11.90;99.90
60868;DHT22;46702;48.370;10.794;2023-06-01T03:58:48;11.90;99.90
60868;DHT22;46702;48.370;10.794;2023-06-01T04:01:13;11.90;99.90
60868;DHT22;46702;48.370;10.794;2023-06-01T04:03:42;11.80;99.90
60868;DHT22;46702;48.370;10.794;2023-06-01T04:06:09;11.90;99.90
60868;DHT22;46702;48.370;10.794;2023-06-01T04:08:37;11.90;99.90
60868;DHT22;46702;48.370;10.794;2023-06-01T04:11:07;12.00;99.90
60868;DHT22;46702;48.370;10.794;2023-06-01T04:13:33;12.10;99.90
60868;DHT22;46702;48.370;10.794;2023-06-01T04:15:58;12.10;99.90
60868;DHT22;46702;48.370;10.794;2023-06-01T04:18:24;12.20;99.90
60868;DHT22;46702;48.370;10.794;2023-06-01T04:20:50;12.10;99.90
60868;DHT22;46702;48.370;10.794;2023-06-01T04:23:15;12.10;99.90
60868;DHT22;46702;48.370;10.794;2023-06-01T04:25:41;12.10;99.90
60868;DHT22;46702;48.370;10.794;2023-06-01T04:28:09;12.20;99.90
60868;DHT22;46702;48.370;10.794;2023-06-01T04:30:35;12.10;99.90
60868;DHT22;46702;48.370;10.794;2023-06-01T04:33:01;12.20;99.90
60868;DHT22;46702;48.370;10.794;2023-06-01T04:35:27;12.20;99.90
60868;DHT22;46702;48.370;10.794;2023-06-01T04:37:52;12.30;99.90
60868;DHT22;46702;48.370;10.794;2023-06-01T04:40:18;12.40;99.90
60868;DHT22;46702;48.370;10.794;2023-06-01T04:42:44;12.50;99.90
60868;DHT22;46702;48.370;10.794;2023-06-01T04:45:16;12.70;99.90
60868;DHT22;46702;48.370;10.794;2023-06-01T04:47:44;12.80;99.90
60868;DHT22;46702;48.370;10.794;2023-06-01T04:50:11;12.90;99.90
60868;DHT22;46702;48.370;10.794;2023-06-01T04:52:41;13.00;99.90
60868;DHT22;46702;48.370;10.794;2023-06-01T04:55:08;13.20;99.90
60868;DHT22;46702;48.370;10.794;2023-06-01T04:57:34;13.30;99.90
60868;DHT22;46702;48.370;10.794;2023-06-01T05:00:06;13.50;99.90
60868;DHT22;46702;48.370;10.794;2023-06-01T05:02:39;13.50;99.90
60868;DHT22;46702;48.370;10.794;2023-06-01T05:05:06;13.70;99.90
60868;DHT22;46702;48.370;10.794;2023-06-01T05:07:33;13.80;99.90
60868;DHT22;46702;48.370;10.794;2023-06-01T05:09:59;13.70;99.90
60868;DHT22;46702;48.370;10.794;2023-06-01T05:12:29;13.80;99.90
60868;DHT22;46702;48.370;10.794;2023-06-01T05:14:55;13.90;99.90
60868;DHT22;46702;48.370;10.794;2023-06-01T05:17:21;14.10;99.90
60868;DHT22;46702;48.370;10.794;2023-06-01T05:19:46;14.30;99.90
60868;DHT22;46702;48.370;10.794;2023-06-01T05:22:12;14.40;99.90
60868;DHT22;46702;48.370;10.794;2023-06-01T05:24:37;14.50;99.90
60868;DHT22;46702;48.370;10.794;2023-06-01T05:27:04;14.50;99.90
60868;DHT22;46702;48.370;10.794;2023-06-01T05:29:30;14.40;99.90
60868;DHT22;46702;48.370;10.794;2023-06-01T05:31:55;14.40;99.90
60868;DHT22;46702;48.370;10.794;2023-06-01T05:34:21;14.50;99.90
60868;DHT22;46702;48.370;10.794;2023-06-01T05:36:48;14.70;99.90
60868;DHT22;46702;48.370;10.794;2023-06-01T05:39:14;14.80;99.90
60868;DHT22;46702;48.370;10.794;2023-06-01T05:41:40;15.00;99.90
60868;DHT22;46702;48.370;10.794;2023-06-01T05:44:06;15.00;99.90
60868;DHT22;46702;48.370;10.794;2023-06-01T05:46:32;15.10;99.90
60868;DHT22;46702;48.370;10.794;2023-06-01T05:48:57;15.20;99.90
60868;DHT22;46702;48.370;10.794;2023-06-01T05:51:23;15.30;99.90
60868;DHT22;46702;48.370;10.794;2023-06-01T05:53:49;15.40;99.90
60868;DHT22;46702;48.370;10.794;2023-06-01T05:56:15;15.50;99.90
60868;DHT22;46702;48.370;10.794;2023-06-01T05:58:42;15.70;99.90
60868;DHT22;46702;48.370;10.794;2023-06-01T06:01:07;15.80;99.90
60868;DHT22;46702;48.370;10.794;2023-06-01T06:03:33;15.90;99.90
60868;DHT22;46702;48.370;10.794;2023-06-01T06:06:00;16.00;99.90
60868;DHT22;46702;48.370;10.794;2023-06-01T06:08:25;16.20;99.90
60868;DHT22;46702;48.370;10.794;2023-06-01T06:10:51;16.30;99.90
60868;DHT22;46702;48.370;10.794;2023-06-01T06:13:17;16.50;99.90
60868;DHT22;46702;48.370;10.794;2023-06-01T06:15:42;16.60;99.90
60868;DHT22;46702;48.370;10.794;2023-06-01T06:18:08;16.70;99.90
60868;DHT22;46702;48.370;10.794;2023-06-01T06:20:34;16.60;99.90
60868;DHT22;46702;48.370;10.794;2023-06-01T06:22:59;16.70;99.90
60868;DHT22;46702;48.370;10.794;2023-06-01T06:25:25;16.80;99.90
60868;DHT22;46702;48.370;10.794;2023-06-01T06:27:50;16.80;99.90
60868;DHT22;46702;48.370;10.794;2023-06-01T06:30:16;17.00;99.90
60868;DHT22;46702;48.370;10.794;2023-06-01T06:32:42;17.10;99.90
60868;DHT22;46702;48.370;10.794;2023-06-01T06:35:08;17.30;99.90
60868;DHT22;46702;48.370;10.794;2023-06-01T06:37:39;17.30;99.90
60868;DHT22;46702;48.370;10.794;2023-06-01T06:40:05;17.40;99.90
60868;DHT22;46702;48.370;10.794;2023-06-01T06:42:32;17.60;99.90
60868;DHT22;46702;48.370;10.794;2023-06-01T06:44:57;17.80;99.90
60868;DHT22;46702;48.370;10.794;2023-06-01T06:47:23;17.80;99.90
60868;DHT22;46702;48.370;10.794;2023-06-01T06:49:50;18.00;99.90
60868;DHT22;46702;48.370;10.794;2023-06-01T06:52:16;18.10;99.90
60868;DHT22;46702;48.370;10.794;2023-06-01T06:54:42;18.20;99.90
60868;DHT22;46702;48.370;10.794;2023-06-01T06:57:08;18.20;99.90
60868;DHT22;46702;48.370;10.794;2023-06-01T06:59:34;18.40;99.90
60868;DHT22;46702;48.370;10.794;2023-06-01T07:02:00;18.40;99.90
60868;DHT22;46702;48.370;10.794;2023-06-01T07:04:27;18.50;99.90
60868;DHT22;46702;48.370;10.794;2023-06-01T07:06:53;18.70;99.90
60868;DHT22;46702;48.370;10.794;2023-06-01T07:09:18;18.80;99.90
60868;DHT22;46702;48.370;10.794;2023-06-01T07:11:44;18.80;99.90
60868;DHT22;46702;48.370;10.794;2023-06-01T07:14:11;18.90;99.90
60868;DHT22;46702;48.370;10.794;2023-06-01T07:16:36;19.00;99.90
60868;DHT22;46702;48.370;10.794;2023-06-01T07:19:02;19.00;99.90
60868;DHT22;46702;48.370;10.794;2023-06-01T07:21:28;19.10;99.90
60868;DHT22;46702;48.370;10.794;2023-06-01T07:23:54;19.20;99.90
60868;DHT22;46702;48.370;10.794;2023-06-01T07:26:19;19.40;99.90
60868;DHT22;46702;48.370;10.794;2023-06-01T07:28:46;19.40;99.90
60868;DHT22;46702;48.370;10.794;2023-06-01T07:31:11;19.30;99.90
60868;DHT22;46702;48.370;10.794;2023-06-01T07:33:37;19.40;99.90
60868;DHT22;46702;48.370;10.794;2023-06-01T07:36:05;19.30;99.90
60868;DHT22;46702;48.370;10.794;2023-06-01T07:38:31;19.40;99.90
60868;DHT22;46702;48.370;10.794;2023-06-01T07:40:58;19.60;99.90
60868;DHT22;46702;48.370;10.794;2023-06-01T07:43:24;19.60;99.90
60868;DHT22;46702;48.370;10.794;2023-06-01T07:45:50;19.60;99.90
60868;DHT22;46702;48.370;10.794;2023-06-01T07:48:15;19.80;99.90
60868;DHT22;46702;48.370;10.794;2023-06-01T07:50:41;19.70;99.90
60868;DHT22;46702;48.370;10.794;2023-06-01T07:53:08;19.70;99.90
60868;DHT22;46702;48.370;10.794;2023-06-01T07:55:34;19.80;99.90
60868;DHT22;46702;48.370;10.794;2023-06-01T07:58:01;19.80;99.90
60868;DHT22;46702;48.370;10.794;2023-06-01T08:00:27;19.90;99.90
60868;DHT22;46702;48.370;10.794;2023-06-01T08:02:52;19.90;99.90
60868;DHT22;46702;48.370;10.794;2023-06-01T08:05:18;20.20;99.90
60868;DHT22;46702;48.370;10.794;2023-06-01T08:07:44;20.30;99.90
60868;DHT22;46702;48.370;10.794;2023-06-01T08:10:12;20.40;99.90
60868;DHT22;46702;48.370;10.794;2023-06-01T08:12:39;20.50;99.90
60868;DHT22;46702;48.370;10.794;2023-06-01T08:15:05;20.70;99.90
60868;DHT22;46702;48.370;10.794;2023-06-01T08:17:31;20.60;99.90
60868;DHT22;46702;48.370;10.794;2023-06-01T08:19:56;20.60;99.90
60868;DHT22;46702;48.370;10.794;2023-06-01T08:22:23;20.90;99.90
60868;DHT22;46702;48.370;10.794;2023-06-01T08:24:51;21.10;99.90
60868;DHT22;46702;48.370;10.794;2023-06-01T08:27:19;21.30;99.90
60868;DHT22;46702;48.370;10.794;2023-06-01T08:29:45;21.30;99.90
60868;DHT22;46702;48.370;10.794;2023-06-01T08:32:12;21.30;99.90
60868;DHT22;46702;48.370;10.794;2023-06-01T08:34:38;21.30;99.90
60868;DHT22;46702;48.370;10.794;2023-06-01T08:37:04;21.20;99.90
60868;DHT22;46702;48.370;10.794;2023-06-01T08:39:30;21.30;99.90
60868;DHT22;46702;48.370;10.794;2023-06-01T08:42:09;21.40;99.90
60868;DHT22;46702;48.370;10.794;2023-06-01T08:44:38;21.40;99.90
60868;DHT22;46702;48.370;10.794;2023-06-01T08:47:04;21.40;99.90
60868;DHT22;46702;48.370;10.794;2023-06-01T08:49:31;21.60;99.90
60868;DHT22;46702;48.370;10.794;2023-06-01T08:52:02;21.80;99.90
60868;DHT22;46702;48.370;10.794;2023-06-01T08:54:28;21.80;99.90
60868;DHT22;46702;48.370;10.794;2023-06-01T08:57:00;21.80;99.90
60868;DHT22;46702;48.370;10.794;2023-06-01T08:59:29;21.80;99.90
60868;DHT22;46702;48.370;10.794;2023-06-01T09:01:57;21.80;99.90
60868;DHT22;46702;48.370;10.794;2023-06-01T09:04:22;21.90;99.90
60868;DHT22;46702;48.370;10.794;2023-06-01T09:06:48;22.20;99.90
60868;DHT22;46702;48.370;10.794;2023-06-01T09:09:13;22.20;99.90
60868;DHT22;46702;48.370;10.794;2023-06-01T09:11:39;22.30;99.90
60868;DHT22;46702;48.370;10.794;2023-06-01T09:14:24;22.30;99.90
60868;DHT22;46702;48.370;10.794;2023-06-01T09:16:51;22.50;99.90
60868;DHT22;46702;48.370;10.794;2023-06-01T09:19:17;22.70;99.90
60868;DHT22;46702;48.370;10.794;2023-06-01T09:21:59;22.60;99.90
60868;DHT22;46702;48.370;10.794;2023-06-01T09:24:25;22.70;99.90
60868;DHT22;46702;48.370;10.794;2023-06-01T09:26:58;22.80;99.90
60868;DHT22;46702;48.370;10.794;2023-06-01T09:29:24;22.80;99.90
60868;DHT22;46702;48.370;10.794;2023-06-01T09:31:50;22.90;99.90
60868;DHT22;46702;48.370;10.794;2023-06-01T09:34:17;22.80;99.90
60868;DHT22;46702;48.370;10.794;2023-06-01T09:36:50;23.00;99.90
60868;DHT22;46702;48.370;10.794;2023-06-01T09:39:19;23.00;99.90
60868;DHT22;46702;48.370;10.794;2023-06-01T09:41:58;23.20;99.90
60868;DHT22;46702;48.370;10.794;2023-06-01T09:44:35;23.20;99.90
60868;DHT22;46702;48.370;10.794;2023-06-01T09:47:06;23.30;99.90
60868;DHT22;46702;48.370;10.794;2023-06-01T09:49:39;23.30;99.90
60868;DHT22;46702;48.370;10.794;2023-06-01T09:56:58;23.20;99.90
60868;DHT22;46702;48.370;10.794;2023-06-01T09:59:25;23.30;99.90
60868;DHT22;46702;48.370;10.794;2023-06-01T10:01:53;23.40;99.90
60868;DHT22;46702;48.370;10.794;2023-06-01T10:06:50;23.30;99.90
60868;DHT22;46702;48.370;10.794;2023-06-01T10:09:21;23.40;99.90
60868;DHT22;46702;48.370;10.794;2023-06-01T10:11:48;23.60;99.90
60868;DHT22;46702;48.370;10.794;2023-06-01T10:14:17;23.90;99.90
60868;DHT22;46702;48.370;10.794;2023-06-01T10:16:43;23.90;99.90
60868;DHT22;46702;48.370;10.794;2023-06-01T10:19:11;23.70;99.90
60868;DHT22;46702;48.370;10.794;2023-06-01T10:21:37;23.60;99.90
60868;DHT22;46702;48.370;10.794;2023-06-01T10:24:06;23.50;99.90
60868;DHT22;46702;48.370;10.794;2023-06-01T10:27:20;23.50;99.90
60868;DHT22;46702;48.370;10.794;2023-06-01T10:29:28;23.50;99.90
60868;DHT22;46702;48.370;10.794;2023-06-01T10:31:54;23.70;99.90
60868;DHT22;46702;48.370;10.794;2023-06-01T10:34:41;23.80;99.90
60868;DHT22;46702;48.370;10.794;2023-06-01T10:39:34;23.50;99.90
60868;DHT22;46702;48.370;10.794;2023-06-01T10:44:46;23.70;99.90
60868;DHT22;46702;48.370;10.794;2023-06-01T10:52:30;23.90;99.90
60868;DHT22;46702;48.370;10.794;2023-06-01T10:57:40;24.10;99.90
60868;DHT22;46702;48.370;10.794;2023-06-01T11:02:40;24.20;99.90
60868;DHT22;46702;48.370;10.794;2023-06-01T11:05:45;24.20;99.90
60868;DHT22;46702;48.370;10.794;2023-06-01T11:13:22;24.60;99.90
60868;DHT22;46702;48.370;10.794;2023-06-01T11:18:55;24.80;99.90
60868;DHT22;46702;48.370;10.794;2023-06-01T11:21:34;24.70;99.90
60868;DHT22;46702;48.370;10.794;2023-06-01T11:24:09;24.70;99.90
60868;DHT22;46702;48.370;10.794;2023-06-01T11:26:46;24.90;99.90
60868;DHT22;46702;48.370;10.794;2023-06-01T11:31:57;24.80;99.90
60868;DHT22;46702;48.370;10.794;2023-06-01T11:34:34;24.70;99.90
60868;DHT22;46702;48.370;10.794;2023-06-01T11:37:00;24.80;99.90
60868;DHT22;46702;48.370;10.794;2023-06-01T11:39:27;24.90;99.90
60868;DHT22;46702;48.370;10.794;2023-06-01T11:42:07;24.70;99.90
60868;DHT22;46702;48.370;10.794;2023-06-01T11:44:38;24.90;99.90
60868;DHT22;46702;48.370;10.794;2023-06-01T11:47:05;24.90;99.90
60868;DHT22;46702;48.370;10.794;2023-06-01T11:49:39;24.90;99.90
60868;DHT22;46702;48.370;10.794;2023-06-01T11:52:08;24.90;99.90
60868;DHT22;46702;48.370;10.794;2023-06-01T11:54:34;24.70;99.90
60868;DHT22;46702;48.370;10.794;2023-06-01T11:57:02;24.50;99.90
60868;DHT22;46702;48.370;10.794;2023-06-01T11:59:39;24.50;99.90
60868;DHT22;46702;48.370;10.794;2023-06-01T12:02:16;24.50;99.90
60868;DHT22;46702;48.370;10.794;2023-06-01T12:05:00;24.60;99.90
60868;DHT22;46702;48.370;10.794;2023-06-01T12:07:27;24.50;99.90
60868;DHT22;46702;48.370;10.794;2023-06-01T12:09:53;24.70;99.90
60868;DHT22;46702;48.370;10.794;2023-06-01T12:12:24;24.90;99.90
60868;DHT22;46702;48.370;10.794;2023-06-01T12:14:50;24.70;99.90
60868;DHT22;46702;48.370;10.794;2023-06-01T12:17:16;24.80;99.90
60868;DHT22;46702;48.370;10.794;2023-06-01T12:19:46;24.90;99.90
60868;DHT22;46702;48.370;10.794;2023-06-01T12:22:15;25.10;99.90
60868;DHT22;46702;48.370;10.794;2023-06-01T12:24:42;25.20;99.90
60868;DHT22;46702;48.370;10.794;2023-06-01T12:27:13;25.30;99.90
60868;DHT22;46702;48.370;10.794;2023-06-01T12:29:42;25.60;99.90
60868;DHT22;46702;48.370;10.794;2023-06-01T12:32:09;26.00;99.90
60868;DHT22;46702;48.370;10.794;2023-06-01T12:34:39;26.20;99.90
60868;DHT22;46702;48.370;10.794;2023-06-01T12:37:12;26.40;99.90
60868;DHT22;46702;48.370;10.794;2023-06-01T12:39:38;26.20;99.90
60868;DHT22;46702;48.370;10.794;2023-06-01T12:42:06;25.50;99.90
60868;DHT22;46702;48.370;10.794;2023-06-01T12:44:32;25.50;99.90
60868;DHT22;46702;48.370;10.794;2023-06-01T12:47:01;25.40;99.90
60868;DHT22;46702;48.370;10.794;2023-06-01T12:49:28;25.30;99.90
60868;DHT22;46702;48.370;10.794;2023-06-01T12:51:54;25.20;99.90
60868;DHT22;46702;48.370;10.794;2023-06-01T12:54:19;25.20;99.90
60868;DHT22;46702;48.370;10.794;2023-06-01T12:56:48;25.50;99.90
60868;DHT22;46702;48.370;10.794;2023-06-01T12:59:14;25.80;99.90
60868;DHT22;46702;48.370;10.794;2023-06-01T13:01:39;26.20;99.90
60868;DHT22;46702;48.370;10.794;2023-06-01T13:04:05;26.60;99.90
60868;DHT22;46702;48.370;10.794;2023-06-01T13:06:32;26.90;99.90
60868;DHT22;46702;48.370;10.794;2023-06-01T13:09:00;27.40;99.90
60868;DHT22;46702;48.370;10.794;2023-06-01T13:11:26;27.20;99.90
60868;DHT22;46702;48.370;10.794;2023-06-01T13:13:52;27.00;99.90
60868;DHT22;46702;48.370;10.794;2023-06-01T13:16:19;27.30;99.90
60868;DHT22;46702;48.370;10.794;2023-06-01T13:18:44;26.70;99.90
60868;DHT22;46702;48.370;10.794;2023-06-01T13:21:10;26.20;99.90
60868;DHT22;46702;48.370;10.794;2023-06-01T13:23:36;25.80;99.90
60868;DHT22;46702;48.370;10.794;2023-06-01T13:26:01;25.90;99.90
60868;DHT22;46702;48.370;10.794;2023-06-01T13:28:27;26.10;99.90
60868;DHT22;46702;48.370;10.794;2023-06-01T13:30:53;26.20;99.90
60868;DHT22;46702;48.370;10.794;2023-06-01T13:33:20;26.20;99.90
60868;DHT22;46702;48.370;10.794;2023-06-01T13:35:46;26.50;99.90
60868;DHT22;46702;48.370;10.794;2023-06-01T13:38:12;26.70;99.90
60868;DHT22;46702;48.370;10.794;2023-06-01T13:40:38;26.40;99.90
60868;DHT22;46702;48.370;10.794;2023-06-01T13:43:04;26.00;99.90
60868;DHT22;46702;48.370;10.794;2023-06-01T13:45:29;26.00;99.90
60868;DHT22;46702;48.370;10.794;2023-06-01T13:47:56;26.10;99.90
60868;DHT22;46702;48.370;10.794;2023-06-01T13:50:23;25.90;99.90
60868;DHT22;46702;48.370;10.794;2023-06-01T13:52:49;25.60;99.90
60868;DHT22;46702;48.370;10.794;2023-06-01T13:55:15;25.60;99.90
60868;DHT22;46702;48.370;10.794;2023-06-01T13:57:41;25.70;99.90
60868;DHT22;46702;48.370;10.794;2023-06-01T14:00:08;25.60;99.90
60868;DHT22;46702;48.370;10.794;2023-06-01T14:02:37;25.60;99.90
60868;DHT22;46702;48.370;10.794;2023-06-01T14:05:03;25.50;99.90
60868;DHT22;46702;48.370;10.794;2023-06-01T14:07:29;25.60;99.90
60868;DHT22;46702;48.370;10.794;2023-06-01T14:09:54;25.50;99.90
60868;DHT22;46702;48.370;10.794;2023-06-01T14:12:20;25.00;99.90
60868;DHT22;46702;48.370;10.794;2023-06-01T14:14:46;24.90;99.90
60868;DHT22;46702;48.370;10.794;2023-06-01T14:17:11;24.80;99.90
60868;DHT22;46702;48.370;10.794;2023-06-01T14:19:37;24.70;99.90
60868;DHT22;46702;48.370;10.794;2023-06-01T14:22:03;24.80;99.90
60868;DHT22;46702;48.370;10.794;2023-06-01T14:24:28;24.80;99.90
60868;DHT22;46702;48.370;10.794;2023-06-01T14:26:54;24.80;99.90
60868;DHT22;46702;48.370;10.794;2023-06-01T14:29:19;24.90;99.90
60868;DHT22;46702;48.370;10.794;2023-06-01T14:31:45;25.00;99.90
60868;DHT22;46702;48.370;10.794;2023-06-01T14:34:11;25.20;99.90
60868;DHT22;46702;48.370;10.794;2023-06-01T14:36:37;25.30;99.90
60868;DHT22;46702;48.370;10.794;2023-06-01T14:39:02;25.30;99.90
60868;DHT22;46702;48.370;10.794;2023-06-01T14:41:28;25.30;99.90
60868;DHT22;46702;48.370;10.794;2023-06-01T14:43:54;25.50;99.90
60868;DHT22;46702;48.370;10.794;2023-06-01T14:46:19;25.40;99.90
60868;DHT22;46702;48.370;10.794;2023-06-01T14:48:46;25.20;99.90
60868;DHT22;46702;48.370;10.794;2023-06-01T14:51:12;24.90;99.90
60868;DHT22;46702;48.370;10.794;2023-06-01T14:53:37;24.80;99.90
60868;DHT22;46702;48.370;10.794;2023-06-01T14:56:05;24.70;99.90
60868;DHT22;46702;48.370;10.794;2023-06-01T14:58:30;24.80;99.90
60868;DHT22;46702;48.370;10.794;2023-06-01T15:00:56;24.80;99.90
60868;DHT22;46702;48.370;10.794;2023-06-01T15:03:22;24.70;99.90
60868;DHT22;46702;48.370;10.794;2023-06-01T15:05:47;24.70;99.90
60868;DHT22;46702;48.370;10.794;2023-06-01T15:08:13;24.60;99.90
60868;DHT22;46702;48.370;10.794;2023-06-01T15:10:40;24.60;99.90
60868;DHT22;46702;48.370;10.794;2023-06-01T15:13:05;24.70;99.90
60868;DHT22;46702;48.370;10.794;2023-06-01T15:15:31;24.90;99.90
60868;DHT22;46702;48.370;10.794;2023-06-01T15:17:56;25.00;99.90
60868;DHT22;46702;48.370;10.794;2023-06-01T15:20:22;25.00;99.90
60868;DHT22;46702;48.370;10.794;2023-06-01T15:22:47;24.90;99.90
60868;DHT22;46702;48.370;10.794;2023-06-01T15:25:13;25.00;99.90
60868;DHT22;46702;48.370;10.794;2023-06-01T15:27:39;25.20;99.90
60868;DHT22;46702;48.370;10.794;2023-06-01T15:30:05;25.20;99.90
60868;DHT22;46702;48.370;10.794;2023-06-01T15:32:31;25.20;99.90
60868;DHT22;46702;48.370;10.794;2023-06-01T15:34:57;25.10;99.90
60868;DHT22;46702;48.370;10.794;2023-06-01T15:37:22;25.00;99.90
60868;DHT22;46702;48.370;10.794;2023-06-01T15:39:48;25.00;99.90
60868;DHT22;46702;48.370;10.794;2023-06-01T15:42:14;25.20;99.90
60868;DHT22;46702;48.370;10.794;2023-06-01T15:44:41;25.20;99.90
60868;DHT22;46702;48.370;10.794;2023-06-01T15:47:08;25.20;99.90
60868;DHT22;46702;48.370;10.794;2023-06-01T15:49:34;25.30;99.90
60868;DHT22;46702;48.370;10.794;2023-06-01T15:52:00;25.30;99.90
60868;DHT22;46702;48.370;10.794;2023-06-01T15:54:32;25.20;99.90
60868;DHT22;46702;48.370;10.794;2023-06-01T15:56:58;25.00;99.90
60868;DHT22;46702;48.370;10.794;2023-06-01T15:59:23;25.00;99.90